Time;durP1;ratioP1;P1;durP2;ratioP2;P2;SDS_P1;SDS_P2;PMS_P1;PMS_P2;Temp;Humidity;BMP_temperature;BMP_pressure;BME280_temperature;BME280_humidity;BME280_pressure;Samples;Min_cycle;Max_cycle;Signal;HPM_P1;HPM_P2
2021/12/27 00:00:43;;;;;;;66.28;36.50;;;0.10;99.90;;;;;;5094139;28;20028;-66
2021/12/27 00:03:09;;;;;;;60.10;34.83;;;0.10;99.90;;;;;;5093671;28;20039;-66
2021/12/27 00:05:35;;;;;;;64.40;34.83;;;0.10;99.90;;;;;;5075950;28;20471;-66
2021/12/27 00:08:01;;;;;;;63.92;36.38;;;0.10;99.90;;;;;;5093208;28;20024;-66
2021/12/27 00:10:29;;;;;;;60.95;34.63;;;0.00;99.90;;;;;;5093882;28;20023;-66
2021/12/27 00:12:57;;;;;;;60.63;36.00;;;0.00;99.90;;;;;;5093030;28;20038;-66
2021/12/27 00:15:23;;;;;;;64.88;35.58;;;0.10;99.90;;;;;;5075907;28;20043;-65
2021/12/27 00:17:50;;;;;;;64.70;35.20;;;0.00;99.90;;;;;;5092862;28;20076;-66
2021/12/27 00:20:18;;;;;;;65.35;36.55;;;0.00;99.90;;;;;;5093608;28;20366;-67
2021/12/27 00:22:45;;;;;;;61.92;34.40;;;0.00;99.90;;;;;;5093563;28;20052;-66
2021/12/27 00:25:12;;;;;;;57.90;35.00;;;0.10;99.90;;;;;;5093610;28;20024;-66
2021/12/27 00:27:38;;;;;;;65.90;36.63;;;0.00;99.90;;;;;;5093643;28;20081;-67
2021/12/27 00:30:05;;;;;;;60.47;34.10;;;0.10;99.90;;;;;;5092996;28;20036;-65
2021/12/27 00:32:33;;;;;;;58.97;34.55;;;0.10;99.90;;;;;;5093320;28;20387;-66
2021/12/27 00:34:59;;;;;;;65.32;35.47;;;0.10;99.90;;;;;;5092797;28;20036;-66
2021/12/27 00:37:25;;;;;;;64.95;36.00;;;0.10;99.90;;;;;;5093534;28;20028;-66
2021/12/27 00:39:50;;;;;;;64.25;35.70;;;0.10;99.90;;;;;;5093095;28;20110;-68
2021/12/27 00:42:16;;;;;;;64.00;35.17;;;0.10;99.90;;;;;;5092765;28;20024;-66
2021/12/27 00:44:42;;;;;;;62.38;35.28;;;0.10;99.90;;;;;;5093026;28;20027;-66
2021/12/27 00:47:08;;;;;;;60.65;35.38;;;0.10;99.90;;;;;;5092635;28;20036;-66
2021/12/27 00:49:33;;;;;;;63.35;35.20;;;0.10;99.90;;;;;;5092912;28;20047;-67
2021/12/27 00:51:59;;;;;;;59.15;34.55;;;0.10;99.90;;;;;;5092287;28;20035;-66
2021/12/27 00:54:25;;;;;;;67.78;35.40;;;0.10;99.90;;;;;;5092748;28;20149;-66
2021/12/27 00:56:51;;;;;;;63.95;34.97;;;0.00;99.90;;;;;;5092156;28;20100;-66
2021/12/27 00:59:16;;;;;;;64.57;35.30;;;0.00;99.90;;;;;;5093138;28;20020;-66
2021/12/27 01:01:43;;;;;;;60.63;34.80;;;0.00;99.90;;;;;;5092676;28;20028;-65
2021/12/27 01:04:08;;;;;;;60.00;35.50;;;0.00;99.90;;;;;;5091963;28;20028;-66
2021/12/27 01:06:34;;;;;;;64.32;36.10;;;0.00;99.90;;;;;;5092821;28;20369;-66
2021/12/27 01:09:00;;;;;;;67.45;37.47;;;0.00;99.90;;;;;;5091853;28;20031;-66
2021/12/27 01:12:07;;;;;;;63.50;35.30;;;0.00;99.90;;;;;;5092904;28;20050;-67
2021/12/27 01:14:39;;;;;;;63.67;34.63;;;0.00;99.90;;;;;;5092201;28;20036;-67
2021/12/27 01:17:06;;;;;;;69.80;37.70;;;0.00;99.90;;;;;;5092145;28;20046;-66
2021/12/27 01:19:32;;;;;;;61.38;34.05;;;0.00;99.90;;;;;;5092182;28;20024;-65
2021/12/27 01:21:57;;;;;;;63.60;34.85;;;0.00;99.90;;;;;;5091783;28;20024;-65
2021/12/27 01:24:23;;;;;;;62.80;35.63;;;0.00;99.90;;;;;;5092628;28;20027;-66
2021/12/27 01:26:49;;;;;;;64.07;35.15;;;0.00;99.90;;;;;;5092260;28;20055;-66
2021/12/27 01:29:14;;;;;;;58.88;33.58;;;0.00;99.90;;;;;;5092153;28;20429;-66
2021/12/27 01:31:40;;;;;;;64.55;35.05;;;0.00;99.90;;;;;;5092003;28;20024;-66
2021/12/27 01:34:06;;;;;;;67.75;35.33;;;0.00;99.90;;;;;;5091721;28;20020;-66
2021/12/27 01:36:32;;;;;;;61.50;35.35;;;0.00;99.90;;;;;;5092406;28;20064;-66
2021/12/27 01:38:59;;;;;;;62.08;33.92;;;0.00;99.90;;;;;;5091665;28;20032;-66
2021/12/27 01:41:25;;;;;;;65.22;36.47;;;0.00;99.90;;;;;;5092464;28;20107;-66
2021/12/27 01:43:52;;;;;;;63.83;34.55;;;0.00;99.90;;;;;;5091450;28;20020;-66
2021/12/27 01:46:20;;;;;;;65.55;34.20;;;0.00;99.90;;;;;;5092270;28;20027;-66
2021/12/27 01:48:54;;;;;;;62.40;35.20;;;0.00;99.90;;;;;;5092170;28;20028;-67
2021/12/27 01:51:25;;;;;;;62.20;35.22;;;0.00;99.90;;;;;;5074201;28;20388;-66
2021/12/27 01:53:51;;;;;;;61.13;35.00;;;0.00;99.90;;;;;;5073370;28;20488;-66
2021/12/27 01:56:20;;;;;;;65.22;36.55;;;0.00;99.90;;;;;;5092109;28;20038;-66
2021/12/27 01:58:47;;;;;;;62.95;36.10;;;0.00;99.90;;;;;;5074211;28;20438;-67
2021/12/27 02:01:14;;;;;;;68.00;36.50;;;0.00;99.90;;;;;;5091548;28;20035;-66
2021/12/27 02:03:41;;;;;;;59.72;35.20;;;0.00;99.90;;;;;;5092030;28;20111;-65
2021/12/27 02:06:08;;;;;;;71.22;37.33;;;0.00;99.90;;;;;;5091342;28;20028;-66
2021/12/27 02:08:36;;;;;;;71.63;38.00;;;0.00;99.90;;;;;;5091695;28;20473;-66
2021/12/27 02:11:03;;;;;;;68.60;37.65;;;0.00;99.90;;;;;;5091419;28;20026;-66
2021/12/27 02:13:29;;;;;;;64.75;37.60;;;0.00;99.90;;;;;;5092189;28;20024;-66
2021/12/27 02:15:54;;;;;;;76.22;39.03;;;0.00;99.90;;;;;;5091226;28;20032;-67
2021/12/27 02:18:20;;;;;;;75.40;40.10;;;0.00;99.90;;;;;;5091866;28;20028;-66
2021/12/27 02:20:46;;;;;;;67.38;37.70;;;0.00;99.90;;;;;;5091935;28;20099;-66
2021/12/27 02:23:16;;;;;;;69.95;39.80;;;0.00;99.90;;;;;;5091285;28;20129;-66
2021/12/27 02:25:47;;;;;;;76.45;40.25;;;0.00;99.90;;;;;;5091842;28;20032;-66
2021/12/27 02:28:13;;;;;;;;;;;0.00;99.90;;;;;;5073527;28;20024;-66
2021/12/27 02:30:41;;;;;;;67.40;38.10;;;0.00;99.90;;;;;;5091924;28;19940;-66
2021/12/27 02:33:08;;;;;;;71.13;40.40;;;0.00;99.90;;;;;;5095178;28;20028;-67
2021/12/27 02:35:46;;;;;;;73.18;39.80;;;0.00;99.90;;;;;;5095752;28;20039;-66
2021/12/27 02:38:21;;;;;;;72.10;39.33;;;0.00;99.90;;;;;;5095154;28;20433;-66
2021/12/27 02:40:47;;;;;;;73.53;39.60;;;0.00;99.90;;;;;;5095733;28;20020;-66
2021/12/27 02:43:18;;;;;;;72.05;38.90;;;0.00;99.90;;;;;;5094978;28;20059;-66
2021/12/27 02:45:53;;;;;;;66.80;39.42;;;0.00;99.90;;;;;;5096002;28;20062;-67
2021/12/27 02:48:22;;;;;;;72.80;38.20;;;0.00;99.90;;;;;;5094566;28;20024;-65
2021/12/27 02:50:49;;;;;;;76.50;41.55;;;0.00;99.90;;;;;;5095684;28;20028;-66
2021/12/27 02:53:15;;;;;;;71.70;39.50;;;0.00;99.90;;;;;;5094332;28;20114;-66
2021/12/27 02:55:42;;;;;;;78.88;41.58;;;0.00;99.90;;;;;;5095256;28;20034;-66
2021/12/27 02:58:08;;;;;;;70.15;39.72;;;0.00;99.90;;;;;;5094676;28;20122;-66
2021/12/27 03:01:00;;;;;;;76.22;40.92;;;0.00;99.90;;;;;;5095251;28;20020;-65
2021/12/27 03:03:27;;;;;;;79.43;42.17;;;0.00;99.90;;;;;;5090422;28;20383;-65
2021/12/27 03:05:52;;;;;;;76.80;41.70;;;0.00;99.90;;;;;;5095489;28;20055;-65
2021/12/27 03:08:20;;;;;;;77.47;42.65;;;0.00;99.90;;;;;;5094466;28;20024;-65
2021/12/27 03:10:49;;;;;;;75.95;41.10;;;0.00;99.90;;;;;;5094472;28;20020;-66
2021/12/27 03:13:18;;;;;;;75.72;40.75;;;0.00;99.90;;;;;;5074450;28;20036;-66
2021/12/27 03:15:43;;;;;;;77.72;41.08;;;0.00;99.90;;;;;;5074615;28;20068;-66
2021/12/27 03:18:11;;;;;;;78.97;40.70;;;0.00;99.90;;;;;;5073837;28;20056;-65
2021/12/27 03:20:36;;;;;;;76.47;40.53;;;0.00;99.90;;;;;;5074858;28;20517;-66
2021/12/27 03:23:02;;;;;;;71.05;40.38;;;0.00;99.90;;;;;;5074017;28;20103;-66
2021/12/27 03:25:28;;;;;;;73.78;40.63;;;0.00;99.90;;;;;;5074571;28;20059;-66
2021/12/27 03:27:53;;;;;;;73.32;40.58;;;0.00;99.90;;;;;;5074354;28;20426;-65
2021/12/27 03:30:23;;;;;;;73.47;39.63;;;0.10;99.90;;;;;;5073857;28;20029;-66
2021/12/27 03:32:49;;;;;;;74.82;41.45;;;0.10;99.90;;;;;;5074071;28;20025;-67
2021/12/27 03:35:24;;;;;;;73.40;40.92;;;0.10;99.90;;;;;;5073676;28;20112;-66
2021/12/27 03:37:52;;;;;;;74.82;40.78;;;0.10;99.90;;;;;;5074427;28;20139;-66
2021/12/27 03:40:20;;;;;;;70.10;39.88;;;0.10;99.90;;;;;;5073688;28;20094;-66
2021/12/27 03:42:49;;;;;;;73.60;39.50;;;0.10;99.90;;;;;;5073488;28;20086;-66
2021/12/27 03:45:21;;;;;;;71.72;39.50;;;0.10;99.90;;;;;;5073502;28;20036;-65
2021/12/27 03:47:48;;;;;;;72.47;38.95;;;0.10;99.90;;;;;;5074202;28;20530;-66
2021/12/27 03:50:14;;;;;;;71.93;40.83;;;0.10;99.90;;;;;;5073570;28;20402;-66
2021/12/27 03:52:40;;;;;;;69.93;38.00;;;0.10;99.90;;;;;;5074101;28;20457;-66
2021/12/27 03:55:07;;;;;;;72.40;40.35;;;0.10;99.90;;;;;;5072988;28;20048;-66
2021/12/27 03:57:35;;;;;;;69.65;40.08;;;0.20;99.90;;;;;;5073926;28;20028;-66
2021/12/27 04:02:46;;;;;;;65.80;39.58;;;0.10;99.90;;;;;;5073625;28;20052;-65
2021/12/27 04:05:12;;;;;;;70.35;39.75;;;0.20;99.90;;;;;;5073069;28;20432;-65
2021/12/27 04:07:39;;;;;;;78.97;41.55;;;0.20;99.90;;;;;;5073725;28;20020;-65
2021/12/27 04:10:10;;;;;;;72.25;40.13;;;0.10;99.90;;;;;;5073211;28;20408;-65
2021/12/27 04:12:37;;;;;;;75.38;41.75;;;0.10;99.90;;;;;;5073424;28;20029;-65
2021/12/27 04:15:05;;;;;;;73.28;41.25;;;0.20;99.90;;;;;;5073473;28;20040;-65
2021/12/27 04:17:30;;;;;;;74.10;40.88;;;0.20;99.90;;;;;;5073448;28;20025;-66
2021/12/27 04:19:56;;;;;;;74.05;41.47;;;0.20;99.90;;;;;;5055507;28;20035;-66
2021/12/27 04:22:22;;;;;;;76.97;43.75;;;0.10;99.90;;;;;;5072743;28;20547;-65
2021/12/27 04:24:47;;;;;;;75.32;40.60;;;0.10;99.90;;;;;;5073097;28;20025;-65
2021/12/27 04:27:13;;;;;;;73.00;42.33;;;0.10;99.90;;;;;;5072748;28;20192;-65
2021/12/27 04:29:39;;;;;;;82.25;42.75;;;0.20;99.90;;;;;;5073298;28;20104;-66
2021/12/27 04:32:05;;;;;;;83.53;43.40;;;0.10;99.90;;;;;;5072749;28;20165;-65
2021/12/27 04:34:31;;;;;;;75.97;40.92;;;0.10;99.90;;;;;;5073381;28;20036;-65
2021/12/27 04:36:56;;;;;;;74.00;41.05;;;0.10;99.90;;;;;;5073254;28;20354;-65
2021/12/27 04:39:22;;;;;;;74.78;41.40;;;0.20;99.90;;;;;;5072540;28;20506;-65
2021/12/27 04:41:48;;;;;;;75.00;41.95;;;0.10;99.90;;;;;;5073340;28;20089;-65
2021/12/27 04:44:14;;;;;;;75.00;41.97;;;0.10;99.90;;;;;;5072340;28;20020;-65
2021/12/27 04:46:40;;;;;;;76.40;42.15;;;0.10;99.90;;;;;;5072724;28;20052;-65
2021/12/27 04:49:06;;;;;;;76.05;42.25;;;0.10;99.90;;;;;;5054253;28;20055;-65
2021/12/27 04:51:31;;;;;;;84.82;44.00;;;0.10;99.90;;;;;;5072871;28;20021;-66
2021/12/27 04:53:57;;;;;;;72.65;41.58;;;0.10;99.90;;;;;;5090263;28;20044;-66
2021/12/27 04:56:23;;;;;;;74.30;41.67;;;0.10;99.90;;;;;;5091197;28;20020;-65
2021/12/27 04:58:49;;;;;;;74.72;41.35;;;0.10;99.90;;;;;;5092438;28;20024;-65
2021/12/27 05:01:15;;;;;;;75.80;39.65;;;0.10;99.90;;;;;;5090596;28;20365;-65
2021/12/27 05:03:41;;;;;;;74.28;42.05;;;0.10;99.90;;;;;;5091550;28;20068;-66
2021/12/27 05:06:07;;;;;;;76.60;42.03;;;0.10;99.90;;;;;;5089115;28;20103;-66
2021/12/27 05:08:33;;;;;;;77.70;43.55;;;0.10;99.90;;;;;;5074829;28;20032;-66
2021/12/27 05:10:58;;;;;;;75.03;41.85;;;0.10;99.90;;;;;;5092404;28;20095;-65
2021/12/27 05:13:24;;;;;;;70.70;39.58;;;0.10;99.90;;;;;;5091639;28;20111;-66
2021/12/27 05:15:50;;;;;;;75.20;40.72;;;0.10;99.90;;;;;;5091967;28;20457;-65
2021/12/27 05:18:16;;;;;;;74.68;41.13;;;0.10;99.90;;;;;;5089826;28;20106;-65
2021/12/27 05:20:41;;;;;;;67.38;40.47;;;0.10;99.90;;;;;;5091245;28;20077;-65
2021/12/27 05:23:07;;;;;;;66.60;39.78;;;0.10;99.90;;;;;;5088867;28;20419;-66
2021/12/27 05:25:33;;;;;;;75.53;39.75;;;0.10;99.90;;;;;;5092017;28;20525;-66
2021/12/27 05:27:58;;;;;;;71.05;40.00;;;0.10;99.90;;;;;;5092155;28;20099;-65
2021/12/27 05:30:24;;;;;;;70.30;40.20;;;0.10;99.90;;;;;;5091806;28;20028;-64
2021/12/27 05:32:49;;;;;;;72.43;39.60;;;0.10;99.90;;;;;;5074150;28;20020;-66
2021/12/27 05:35:15;;;;;;;74.10;41.05;;;0.20;99.90;;;;;;5091404;28;20036;-65
2021/12/27 05:37:43;;;;;;;74.43;41.00;;;0.10;99.90;;;;;;5092180;28;20064;-65
2021/12/27 05:40:27;;;;;;;71.65;39.72;;;0.10;99.90;;;;;;5073112;28;20024;-65
2021/12/27 05:42:54;;;;;;;72.13;40.35;;;0.20;99.90;;;;;;5091873;28;20103;-65
2021/12/27 05:45:21;;;;;;;74.38;40.47;;;0.20;99.90;;;;;;5091450;28;20028;-65
2021/12/27 05:47:47;;;;;;;76.15;41.25;;;0.20;99.90;;;;;;5092099;28;20031;-65
2021/12/27 05:50:17;;;;;;;66.55;39.00;;;0.30;99.90;;;;;;5091468;28;20031;-64
2021/12/27 05:52:43;;;;;;;69.53;40.57;;;0.30;99.90;;;;;;5092125;28;20028;-65
2021/12/27 05:55:10;;;;;;;69.88;40.45;;;0.30;99.90;;;;;;5091226;28;20480;-65
2021/12/27 05:57:36;;;;;;;72.22;39.42;;;0.30;99.90;;;;;;5091606;28;20468;-65
2021/12/27 06:00:05;;;;;;;66.72;38.08;;;0.40;99.90;;;;;;5091610;28;20093;-65
2021/12/27 06:02:31;;;;;;;71.57;40.47;;;0.40;99.90;;;;;;5072958;28;20028;-65
2021/12/27 06:04:56;;;;;;;69.15;39.08;;;0.40;99.90;;;;;;5092011;28;20034;-66
2021/12/27 06:07:22;;;;;;;74.05;40.65;;;0.40;99.90;;;;;;5091037;28;20028;-64
2021/12/27 06:09:48;;;;;;;67.30;39.45;;;0.40;99.90;;;;;;5091886;28;20024;-65
2021/12/27 06:12:14;;;;;;;58.53;35.20;;;0.50;99.90;;;;;;5091324;28;20034;-65
2021/12/27 06:14:39;;;;;;;61.17;35.65;;;0.50;99.90;;;;;;5092069;28;20040;-65
2021/12/27 06:17:05;;;;;;;55.45;32.85;;;0.50;99.90;;;;;;5092142;28;20077;-64
2021/12/27 06:19:31;;;;;;;57.80;34.65;;;0.50;99.90;;;;;;5091028;28;20447;-64
2021/12/27 06:21:57;;;;;;;55.88;32.47;;;0.50;99.90;;;;;;5092153;28;20034;-64
2021/12/27 06:24:22;;;;;;;58.97;31.83;;;0.50;99.90;;;;;;5091252;28;20361;-64
2021/12/27 06:26:48;;;;;;;60.28;34.65;;;0.60;99.90;;;;;;5091619;28;20082;-64
2021/12/27 06:29:14;;;;;;;56.03;34.00;;;0.50;99.90;;;;;;5090972;28;20020;-64
2021/12/27 06:31:40;;;;;;;57.13;32.28;;;0.60;99.90;;;;;;5091809;28;20028;-65
2021/12/27 06:34:06;;;;;;;55.47;29.35;;;0.60;99.90;;;;;;5091712;28;20036;-65
2021/12/27 06:36:32;;;;;;;56.97;32.00;;;0.60;99.90;;;;;;5091460;28;20450;-65
2021/12/27 06:38:58;;;;;;;52.78;29.83;;;0.60;99.90;;;;;;5091610;28;20023;-64
2021/12/27 06:41:25;;;;;;;55.33;31.58;;;0.60;99.90;;;;;;5090846;28;20054;-66
2021/12/27 06:43:51;;;;;;;50.83;29.85;;;0.60;99.90;;;;;;5091769;28;20474;-65
2021/12/27 06:46:17;;;;;;;50.58;29.90;;;0.60;99.90;;;;;;5090673;28;20036;-64
2021/12/27 06:48:43;;;;;;;53.63;28.90;;;0.60;99.90;;;;;;5091358;28;20329;-65
2021/12/27 06:51:09;;;;;;;47.70;27.40;;;0.60;99.90;;;;;;5091627;28;20028;-65
2021/12/27 06:53:34;;;;;;;47.78;26.23;;;0.60;99.90;;;;;;5090683;28;20051;-65
2021/12/27 06:56:02;;;;;;;43.50;25.95;;;0.60;99.90;;;;;;5091422;28;20043;-65
2021/12/27 06:58:28;;;;;;;41.78;25.05;;;0.60;99.90;;;;;;5090609;28;20480;-65
2021/12/27 07:00:53;;;;;;;40.33;24.10;;;0.60;99.90;;;;;;5091668;28;20055;-64
2021/12/27 07:03:19;;;;;;;37.28;23.90;;;0.60;99.90;;;;;;5090683;28;20473;-64
2021/12/27 07:05:45;;;;;;;37.30;22.02;;;0.60;99.90;;;;;;5091447;28;20053;-65
2021/12/27 07:08:11;;;;;;;35.83;20.83;;;0.60;99.90;;;;;;5091483;28;20070;-64
2021/12/27 07:10:36;;;;;;;34.45;20.08;;;0.60;99.90;;;;;;5091111;28;20032;-65
2021/12/27 07:13:04;;;;;;;31.02;19.50;;;0.60;99.90;;;;;;5091339;28;20031;-65
2021/12/27 07:15:30;;;;;;;31.35;19.45;;;0.60;99.90;;;;;;5090288;28;20464;-65
2021/12/27 07:17:57;;;;;;;29.60;18.35;;;0.60;99.90;;;;;;5091621;28;20043;-65
2021/12/27 07:20:22;;;;;;;30.08;17.75;;;0.60;99.90;;;;;;5093845;28;20020;-65
2021/12/27 07:22:49;;;;;;;25.35;16.52;;;0.60;99.90;;;;;;5074362;28;20028;-65
2021/12/27 07:25:15;;;;;;;25.70;16.08;;;0.60;99.90;;;;;;5074498;28;20069;-65
2021/12/27 07:27:40;;;;;;;26.95;16.52;;;0.60;99.90;;;;;;5074597;28;20099;-65
2021/12/27 07:30:09;;;;;;;28.65;16.90;;;0.60;99.90;;;;;;5074159;28;20027;-67
2021/12/27 07:32:35;;;;;;;24.70;15.40;;;0.60;99.90;;;;;;5073936;28;20113;-65
2021/12/27 07:35:02;;;;;;;24.42;16.77;;;0.60;99.90;;;;;;5056330;28;20040;-66
2021/12/27 07:37:28;;;;;;;25.00;15.75;;;0.60;99.90;;;;;;5073844;28;20039;-65
2021/12/27 07:39:54;;;;;;;24.83;16.20;;;0.60;99.90;;;;;;5074090;28;20024;-65
2021/12/27 07:42:20;;;;;;;25.25;15.82;;;0.60;99.90;;;;;;5073685;28;20063;-65
2021/12/27 07:44:45;;;;;;;26.73;15.77;;;0.60;99.90;;;;;;5074187;28;20032;-65
2021/12/27 07:47:30;;;;;;;26.25;16.15;;;0.70;99.90;;;;;;5074148;28;20032;-64
2021/12/27 07:49:55;;;;;;;24.33;16.27;;;0.70;99.90;;;;;;5074099;28;20033;-65
2021/12/27 07:52:21;;;;;;;23.20;15.45;;;0.70;99.90;;;;;;5073244;28;20060;-65
2021/12/27 07:54:47;;;;;;;24.77;16.42;;;0.70;99.90;;;;;;5073768;28;20052;-65
2021/12/27 07:57:13;;;;;;;25.08;16.35;;;0.70;99.90;;;;;;5074064;28;20020;-65
2021/12/27 07:59:39;;;;;;;25.98;15.77;;;0.70;99.90;;;;;;5073122;28;20034;-65
2021/12/27 08:02:04;;;;;;;23.83;15.95;;;0.70;99.90;;;;;;5073866;28;20036;-65
2021/12/27 08:04:30;;;;;;;26.60;16.02;;;0.70;99.90;;;;;;5073160;28;20029;-65
2021/12/27 08:06:56;;;;;;;27.63;16.77;;;0.80;99.90;;;;;;5073827;28;20064;-65
2021/12/27 08:09:25;;;;;;;27.65;16.80;;;0.90;99.90;;;;;;5073223;28;20021;-65
2021/12/27 08:11:51;;;;;;;29.13;17.40;;;0.90;99.90;;;;;;5073807;28;20050;-65
2021/12/27 08:14:17;;;;;;;25.80;17.35;;;0.90;99.90;;;;;;5073737;28;20103;-65
2021/12/27 08:16:42;;;;;;;23.80;16.10;;;0.90;99.90;;;;;;5073090;28;20483;-65
2021/12/27 08:19:08;;;;;;;24.35;16.40;;;1.00;99.90;;;;;;5073633;28;20021;-65
2021/12/27 08:21:34;;;;;;;28.27;17.55;;;1.00;99.90;;;;;;5072942;28;20028;-64
2021/12/27 08:24:00;;;;;;;26.95;17.10;;;1.00;99.90;;;;;;5073410;28;20024;-65
2021/12/27 08:26:26;;;;;;;27.15;17.52;;;1.00;99.90;;;;;;5072435;28;20025;-64
2021/12/27 08:28:53;;;;;;;28.52;17.52;;;1.00;99.90;;;;;;5073277;28;20052;-65
2021/12/27 08:31:19;;;;;;;25.63;16.75;;;1.00;99.90;;;;;;5073348;28;20050;-64
2021/12/27 08:33:45;;;;;;;33.05;18.70;;;1.10;99.90;;;;;;5072740;28;20111;-64
2021/12/27 08:36:10;;;;;;;27.45;17.23;;;1.10;99.90;;;;;;5073063;28;20098;-65
2021/12/27 08:38:37;;;;;;;30.30;19.13;;;1.10;99.90;;;;;;5091995;28;20028;-65
2021/12/27 08:41:03;;;;;;;28.05;16.80;;;1.10;99.90;;;;;;5093247;28;20032;-65
2021/12/27 08:43:28;;;;;;;28.60;17.42;;;1.20;99.90;;;;;;5092609;28;20035;-65
2021/12/27 08:45:56;;;;;;;28.63;18.08;;;1.20;99.90;;;;;;5074898;28;20028;-65
2021/12/27 08:48:21;;;;;;;27.27;18.55;;;1.20;99.90;;;;;;5092811;28;20028;-65
2021/12/27 08:50:47;;;;;;;30.90;18.85;;;1.20;99.90;;;;;;5093329;28;20065;-64
2021/12/27 08:53:14;;;;;;;31.65;18.80;;;1.20;99.90;;;;;;5093045;28;20028;-65
2021/12/27 08:55:39;;;;;;;33.00;20.27;;;1.30;99.90;;;;;;5092393;28;20039;-65
2021/12/27 08:58:06;;;;;;;33.20;19.83;;;1.30;99.90;;;;;;5092890;28;20025;-65
2021/12/27 09:00:32;;;;;;;31.30;19.35;;;1.30;99.90;;;;;;5092214;28;20028;-64
2021/12/27 09:02:58;;;;;;;31.73;19.25;;;1.30;99.90;;;;;;5092979;28;20020;-65
2021/12/27 09:05:24;;;;;;;32.17;19.30;;;1.30;99.90;;;;;;5092174;28;20110;-65
2021/12/27 09:07:50;;;;;;;33.70;19.17;;;1.40;99.90;;;;;;5092654;28;20020;-65
2021/12/27 09:10:16;;;;;;;29.67;18.77;;;1.40;99.90;;;;;;5092470;28;20567;-65
2021/12/27 09:12:42;;;;;;;31.70;20.00;;;1.40;99.90;;;;;;5092038;28;20400;-65
2021/12/27 09:15:09;;;;;;;27.77;18.55;;;1.50;99.90;;;;;;5092716;28;20032;-65
2021/12/27 09:17:35;;;;;;;27.23;18.70;;;1.50;99.90;;;;;;5092103;28;20028;-65
2021/12/27 09:20:01;;;;;;;31.63;19.70;;;1.50;99.90;;;;;;5092283;28;20358;-65
2021/12/27 09:22:26;;;;;;;32.55;20.02;;;1.50;99.90;;;;;;5091372;28;20027;-65
2021/12/27 09:24:52;;;;;;;31.50;20.20;;;1.50;99.90;;;;;;5092685;28;20036;-65
2021/12/27 09:27:18;;;;;;;31.75;18.95;;;1.50;99.90;;;;;;5092582;28;20448;-64
2021/12/27 09:29:44;;;;;;;31.20;18.98;;;1.60;99.90;;;;;;5091975;28;20453;-65
2021/12/27 09:32:11;;;;;;;32.55;20.35;;;1.60;99.90;;;;;;5092395;28;20051;-65
2021/12/27 09:34:38;;;;;;;31.25;19.20;;;1.70;99.90;;;;;;5091709;28;20036;-65
2021/12/27 09:37:05;;;;;;;29.20;19.27;;;1.70;99.90;;;;;;5092474;28;20483;-65
2021/12/27 09:39:30;;;;;;;34.17;21.35;;;1.80;99.90;;;;;;5091704;28;20024;-65
2021/12/27 09:41:56;;;;;;;32.95;20.00;;;1.80;99.90;;;;;;5091491;28;20099;-64
2021/12/27 09:44:22;;;;;;;32.10;20.05;;;1.80;99.90;;;;;;5092227;28;20047;-65
2021/12/27 09:46:48;;;;;;;33.35;19.52;;;1.90;99.90;;;;;;5091594;28;20020;-64
2021/12/27 09:49:17;;;;;;;34.85;21.13;;;1.90;99.90;;;;;;5092016;28;20031;-64
2021/12/27 09:51:44;;;;;;;33.28;20.10;;;2.00;99.90;;;;;;5091679;28;20034;-63
2021/12/27 09:54:09;;;;;;;32.92;19.38;;;2.00;99.90;;;;;;5092171;28;20075;-65
2021/12/27 09:56:35;;;;;;;33.78;20.55;;;2.00;99.90;;;;;;5091411;28;20091;-66
2021/12/27 09:59:02;;;;;;;30.27;18.95;;;2.10;99.90;;;;;;5092186;28;20103;-64
2021/12/27 10:01:27;;;;;;;28.45;17.75;;;2.10;99.90;;;;;;5091523;28;20017;-64
2021/12/27 10:03:55;;;;;;;31.55;17.95;;;2.10;99.90;;;;;;5091779;28;20374;-66
2021/12/27 10:06:23;;;;;;;31.40;18.98;;;2.10;99.90;;;;;;5092025;28;20095;-66
2021/12/27 10:08:51;;;;;;;29.55;18.25;;;2.20;99.90;;;;;;5091266;28;20024;-65
2021/12/27 10:11:21;;;;;;;29.05;17.98;;;2.20;99.90;;;;;;5091940;28;20024;-65
2021/12/27 10:13:58;;;;;;;29.33;18.08;;;2.20;99.20;;;;;;5091297;28;20024;-64
2021/12/27 10:16:26;;;;;;;27.98;18.33;;;2.20;99.10;;;;;;5091908;28;20443;-65
2021/12/27 10:18:59;;;;;;;29.08;17.65;;;2.20;98.50;;;;;;5091208;28;20024;-65
2021/12/27 10:21:25;;;;;;;29.52;18.13;;;2.20;98.10;;;;;;5091649;28;20484;-67
2021/12/27 10:24:27;;;;;;;31.17;18.55;;;2.20;98.10;;;;;;5073211;28;20020;-64
2021/12/27 10:26:54;;;;;;;28.83;18.67;;;2.20;97.60;;;;;;5074360;28;20044;-65
2021/12/27 10:29:31;;;;;;;33.03;18.92;;;2.20;97.70;;;;;;5091908;28;20035;-64
2021/12/27 10:32:00;;;;;;;31.90;19.52;;;2.30;97.80;;;;;;5091943;28;20060;-65
2021/12/27 10:34:30;;;;;;;35.53;18.15;;;2.30;98.00;;;;;;5091756;28;20101;-64
2021/12/27 10:37:15;;;;;;;31.88;18.90;;;2.40;97.90;;;;;;5091868;28;20515;-65
2021/12/27 10:39:47;;;;;;;30.80;17.90;;;2.40;97.90;;;;;;5091262;28;20040;-65
2021/12/27 10:42:20;;;;;;;27.50;17.45;;;2.40;98.10;;;;;;5091597;28;20032;-65
2021/12/27 10:44:47;;;;;;;31.08;18.15;;;2.50;97.80;;;;;;5091086;28;20536;-65
2021/12/27 10:47:31;;;;;;;32.65;18.55;;;2.50;97.10;;;;;;5091632;28;20115;-65
2021/12/27 10:50:03;;;;;;;28.95;17.77;;;2.50;96.80;;;;;;5092092;28;20028;-65
2021/12/27 10:52:46;;;;;;;30.52;18.02;;;2.50;96.70;;;;;;5091601;28;20031;-65
2021/12/27 10:55:14;;;;;;;31.38;17.83;;;2.50;96.50;;;;;;5095707;28;20043;-65
2021/12/27 10:57:41;;;;;;;33.13;18.75;;;2.50;96.80;;;;;;5094529;28;20443;-66
2021/12/27 11:00:24;;;;;;;35.45;19.40;;;2.50;96.80;;;;;;5095306;28;20024;-65
2021/12/27 11:02:51;;;;;;;29.90;18.58;;;2.50;96.90;;;;;;5094876;28;20461;-65
2021/12/27 11:05:23;;;;;;;28.80;18.08;;;2.50;97.00;;;;;;5095312;28;20036;-65
2021/12/27 11:07:50;;;;;;;26.13;17.52;;;2.60;97.10;;;;;;5094433;28;20089;-65
2021/12/27 11:10:16;;;;;;;28.65;18.75;;;2.60;97.00;;;;;;5095215;28;20055;-65
2021/12/27 11:12:42;;;;;;;31.83;17.48;;;2.70;96.80;;;;;;5094428;28;20094;-64
2021/12/27 11:15:10;;;;;;;28.23;17.70;;;2.70;96.20;;;;;;5076968;28;20110;-65
2021/12/27 11:17:40;;;;;;;31.75;18.05;;;2.70;95.80;;;;;;5094091;28;20040;-66
2021/12/27 11:20:08;;;;;;;32.00;17.80;;;2.70;95.60;;;;;;5094400;28;20036;-66
2021/12/27 11:22:40;;;;;;;34.40;19.25;;;2.80;95.20;;;;;;5094340;28;20371;-65
2021/12/27 11:25:17;;;;;;;31.15;18.38;;;2.80;94.80;;;;;;5094894;28;20028;-66
2021/12/27 11:30:30;;;;;;;28.58;18.15;;;2.80;94.50;;;;;;5094655;28;20031;-65
2021/12/27 11:33:16;;;;;;;28.60;17.88;;;2.80;94.20;;;;;;5094065;28;20067;-65
2021/12/27 11:36:09;;;;;;;32.47;18.33;;;2.90;94.10;;;;;;5094047;28;20036;-66
2021/12/27 11:38:36;;;;;;;31.92;18.58;;;2.90;94.00;;;;;;5083117;28;20040;-66
2021/12/27 11:41:05;;;;;;;30.92;18.27;;;3.00;94.00;;;;;;5094533;28;20111;-66
2021/12/27 11:43:55;;;;;;;31.52;18.05;;;3.00;94.00;;;;;;5094514;28;20021;-66
2021/12/27 11:46:30;;;;;;;30.52;19.00;;;3.00;94.20;;;;;;5094509;28;20372;-65
2021/12/27 11:48:59;;;;;;;32.78;18.92;;;3.10;94.20;;;;;;5093727;28;20475;-65
2021/12/27 11:51:36;;;;;;;27.88;18.40;;;3.20;94.40;;;;;;5094419;28;20023;-65
2021/12/27 11:54:29;;;;;;;30.05;18.48;;;3.20;94.30;;;;;;5094230;28;20075;-65
2021/12/27 11:56:55;;;;;;;32.25;19.25;;;3.30;94.10;;;;;;5075437;28;20043;-64
2021/12/27 11:59:35;;;;;;;31.58;18.92;;;3.40;93.90;;;;;;5094156;28;20026;-65
2021/12/27 12:02:16;;;;;;;38.95;20.02;;;3.50;93.70;;;;;;5094030;28;20109;-65
2021/12/27 12:04:56;;;;;;;34.70;19.50;;;3.50;93.00;;;;;;5092996;28;20028;-65
2021/12/27 12:07:34;;;;;;;34.38;19.17;;;3.50;92.60;;;;;;5093887;28;20491;-65
2021/12/27 12:10:16;;;;;;;33.40;20.25;;;3.50;92.70;;;;;;5093511;28;20028;-65
2021/12/27 12:12:41;;;;;;;31.50;19.23;;;3.50;92.70;;;;;;5093294;28;20020;-64
2021/12/27 12:15:08;;;;;;;37.13;19.83;;;3.60;92.60;;;;;;5093697;28;20032;-64
2021/12/27 12:17:40;;;;;;;30.83;18.38;;;3.60;92.30;;;;;;5093494;28;20465;-64
2021/12/27 12:20:23;;;;;;;33.67;19.98;;;3.60;92.40;;;;;;5093581;28;20421;-64
2021/12/27 12:23:08;;;;;;;41.17;21.20;;;3.60;92.10;;;;;;5093197;28;20448;-65
2021/12/27 12:25:35;;;;;;;33.47;20.33;;;3.70;91.70;;;;;;5093848;28;20460;-64
2021/12/27 12:28:00;;;;;;;35.33;20.40;;;3.70;91.30;;;;;;5093115;28;20031;-65
2021/12/27 12:30:35;;;;;;;38.47;22.10;;;3.70;91.10;;;;;;5093453;28;20024;-65
2021/12/27 12:33:04;;;;;;;37.80;21.25;;;3.70;90.90;;;;;;5092709;28;20157;-65
2021/12/27 12:35:38;;;;;;;35.70;20.98;;;3.70;90.90;;;;;;5093551;28;20043;-65
2021/12/27 12:38:30;;;;;;;37.85;21.00;;;3.70;90.90;;;;;;5093482;28;20024;-65
2021/12/27 12:41:09;;;;;;;35.00;19.63;;;3.60;90.80;;;;;;5092370;28;20028;-65
2021/12/27 12:43:39;;;;;;;33.97;19.55;;;3.60;90.60;;;;;;5093656;28;20035;-66
2021/12/27 12:46:24;;;;;;;33.03;21.42;;;3.60;90.70;;;;;;5093259;28;20036;-64
2021/12/27 12:49:01;;;;;;;34.00;20.30;;;3.60;90.50;;;;;;5092664;28;20028;-64